Tiempo atmosférico en la estación meteorológica de Gotarrendura , Ávila (920 m.)



Fecha
DESCASC
Temp. máxima en grados centígrados (hora)
DESCASC
Temp. mínima en grados centígrados (hora)
DESCASC
Temp. media en grados centígrados
DESCASC
Racha de viento máxima en m/sg (hora)
DESCASC
Velocidad máxima media en intervalos de 10 minutos(hora)
DESCASC
Precipitaciones diarias en mm
DESCASC
Precipitaciones de 00:00 a 06:00 en mm
DESCASC
Precipitaciones de 06:00 a 12:00 en mm
DESCASC
Precipitaciones de 12:00 a 18:00 en mm
DESCASC
Precipitaciones de 18:00 a 24:00 en mm
DESCASC
24-09-2020 19.7 (16:40) 11.3 (22:50) 15.5 16.11 (17:10) 11.67 (17:10) 1.4 1.2 0.2 0 0
23-09-2020 21.5 (16:30) 13.5 (00:00) 17.5 13.61 (18:00) 10 (18:40) 0.6 0 0.6 0 0
22-09-2020 21.9 (17:30) 8.7 (00:00) 15.3 9.72 (17:50) 6.67 (18:40) 0 0 0 0 0
21-09-2020 20.6 (18:00) 8.8 (00:00) 14.7 5.83 (16:20) 3.33 (18:20) 0 0 0 0 0
20-09-2020 20.2 (13:50) 13.8 (00:00) 17 15 (16:00) 10.56 (14:40) 0.2 0 0 0.2 0
19-09-2020 18.8 (16:10) 12.6 (00:00) 15.7 11.39 (12:40) 7.78 (13:50) 3.6 3.2 0 0 0.4
18-09-2020 21.3 (14:50) 12.3 (00:00) 16.8 12.22 (03:40) 6.39 (13:30) 29 11.2 3.8 4 10
17-09-2020 24.6 (15:20) 15.9 (00:00) 20.3 13.89 (12:10) 9.17 (12:10) 1.6 0.2 0 0 1.4
16-09-2020 28.3 (15:40) 11.8 (00:00) 20 17.78 (22:40) 10.28 (22:40) 0.2 0 0 0 0.2
15-09-2020 27.8 (16:40) 13 (00:00) 20.4 9.17 (17:10) 4.44 (13:10) 0 0 0 0 0
14-09-2020 29.2 (16:30) 17.3 (00:00) 23.3 13.06 (22:20) 8.61 (02:40) 1.6 0 0 0 1.6
13-09-2020 31 (15:00) 15.1 (00:00) 23.1 11.94 (10:10) 7.5 (10:30) 0 0 0 0 0
12-09-2020 30.5 (16:00) 10.6 (00:00) 20.6 8.33 (16:00) 4.17 (12:10) 0 0 0 0 0
11-09-2020 28.9 (14:40) 10.5 (00:00) 19.7 7.5 (14:20) 3.89 (16:30) 0 0 0 0 0
10-09-2020 27.6 (17:20) 8.8 (00:00) 18.2 6.94 (15:00) 4.17 (17:40) 0 0 0 0 0
09-09-2020 27.8 (17:10) 13.8 (00:00) 20.8 8.61 (09:00) 5 (08:30) 0 0 0 0 0
08-09-2020 25.3 (16:10) 3.6 (00:00) 14.4 9.17 (11:50) 5.83 (10:30) 0 0 0 0 0
07-09-2020 22.9 (17:30) 7.2 (07:50) 15 10 (16:10) 5.28 (20:20) 0 0 0 0 0
06-09-2020 29.3 (17:00) 10.1 (00:00) 19.7 8.89 (19:40) 5.28 (19:40) 0 0 0 0 0
05-09-2020 31.8 (15:20) 14.7 (00:00) 23.2 11.11 (21:10) 6.39 (21:20) 0 0 0 0 0
04-09-2020 31.8 (16:30) 16.2 (00:00) 24 9.72 (14:50) 5.83 (10:00) 0 0 0 0 0
03-09-2020 30 (16:40) 9.2 (00:00) 19.6 5.28 (14:50) 3.06 (18:50) 0 0 0 0 0
02-09-2020 26.8 (16:50) 7.3 (00:00) 17 6.67 (16:40) 3.89 (20:00) 0 0 0 0 0
01-09-2020 26.2 (16:30) 11.9 (00:00) 19.1 7.5 (17:30) 3.61 (17:30) 0 0 0 0 0
31-08-2020 24.2 (17:00) 3.9 (00:00) 14.1 10 (16:50) 4.44 (18:20) 0 0 0 0 0
30-08-2020 -- (--) -- (--) -- -- (--) -- (--) -- -- 0 0 0
29-08-2020 19.9 (16:00) 8.1 (00:00) 14 11.67 (19:20) 8.06 (19:20) 0 0 0 0 0
28-08-2020 26.3 (17:00) 15.6 (00:00) 20.9 13.61 (16:20) 8.89 (19:20) 0 0 0 0 0

Gráficas

Temp. máximas Temp. mínimas Temp. medias Precipitaciones Rachas de viento máximas Velocidades máximas media en intervalos de 10 minutos

Datos horarios

Fecha y hora oficial Temperatura (ºC) Velocidad del viento (km/h) Dirección del viento Racha (km/h) Dirección de racha Precipitación (mm) Presión (hPa) Tendencia (hPa) Humedad (%)
2020-09-26 23:00:00 12 24 Sudoeste 41 Sudoeste 0 -- -- 82
2020-09-26 22:00:00 12.8 31 Sudoeste 44 Sudoeste 0 -- -- 77
2020-09-26 21:00:00 13.8 27 Sudoeste 44 Sudoeste 0 -- -- 71
2020-09-26 20:00:00 14.9 27 Oeste 44 Sudoeste 0 -- -- 63
2020-09-26 19:00:00 16.5 32 Oeste 44 Sudoeste 0 -- -- 50
2020-09-26 18:00:00 17.4 30 Oeste 42 Sudoeste 0 -- -- 47
2020-09-26 17:00:00 17.4 24 Oeste 40 Sudoeste 0 -- -- 46
2020-09-26 16:00:00 17 13 Oeste 36 Oeste 0 -- -- 45
2020-09-26 15:00:00 16.6 20 Oeste 37 Oeste 0 -- -- 42
2020-09-26 14:00:00 15.8 14 Sudoeste 31 Oeste 0 -- -- 48
2020-09-26 13:00:00 14.4 8 Noroeste 17 Oeste 0 -- -- 53
2020-09-26 12:00:00 12.6 7 Oeste 15 Sudoeste 0 -- -- 59
2020-09-26 11:00:00 11.3 4 Noroeste 16 Sudoeste 0 -- -- 63
2020-09-26 10:00:00 9.1 5 Sudoeste 11 Sur 0 -- -- 69
2020-09-26 09:00:00 5.9 7 Sur 12 Sur 0 -- -- 83
2020-09-26 08:00:00 4.9 7 Sur 11 Sur 0 -- -- 85
2020-09-26 07:00:00 5.1 8 Sur 12 Sudoeste 0 -- -- 84
2020-09-26 06:00:00 5.6 9 Sudoeste 13 Sudoeste 0 -- -- 81
2020-09-26 05:00:00 6.1 6 Sudoeste 14 Sudoeste 0 -- -- 80
2020-09-26 04:00:00 6.2 6 Sudoeste 13 Sudoeste 0 -- -- 80
2020-09-26 03:00:00 7 11 Sudoeste 19 Oeste 0 -- -- 76
2020-09-26 02:00:00 7.6 13 Sudoeste 24 Oeste 0 -- -- 74
2020-09-26 01:00:00 7.9 10 Sudoeste 24 Oeste 0 -- -- 72
2020-09-26 00:00:00 8.4 14 Sudoeste 22 Sudoeste 0 -- -- 69
2020-09-25 23:00:00 9.5 11 Oeste 19 Oeste 0 -- -- 64
2020-09-25 22:00:00 9.8 10 Sudoeste 14 Oeste 0 -- -- 61
2020-09-25 21:00:00 11.9 10 Oeste 27 Norte 0 -- -- 53
2020-09-25 20:00:00 13.6 20 Oeste 39 Norte 0 -- -- 51
2020-09-25 19:00:00 14.2 23 Oeste 42 Oeste 0 -- -- 47
2020-09-25 18:00:00 14.9 25 Oeste 45 Oeste 0 -- -- 45
2020-09-25 17:00:00 14.8 23 Oeste 42 Oeste 0 -- -- 44
2020-09-25 16:00:00 15.1 21 Oeste 44 Oeste 0 -- -- 43
2020-09-25 15:00:00 14.8 23 Oeste 44 Norte 0 -- -- 43
2020-09-25 14:00:00 13.7 24 Oeste 45 Sudoeste 0 -- -- 49
2020-09-25 13:00:00 12.9 32 Sudoeste 45 Sudoeste 0 -- -- 53
2020-09-25 12:00:00 11.6 28 Oeste 43 Sudoeste 0 -- -- 57
2020-09-25 11:00:00 10.2 32 Sudoeste 45 Sudoeste 0 -- -- 66
2020-09-25 10:00:00 8.9 34 Oeste 48 Oeste 0 -- -- 70
2020-09-25 09:00:00 7.9 29 Oeste 44 Sudoeste 0 -- -- 74
2020-09-25 08:00:00 8.2 34 Oeste 45 Oeste 0 -- -- 77
2020-09-25 07:00:00 9.1 28 Oeste 46 Oeste 0 -- -- 80
2020-09-25 06:00:00 9.8 32 Oeste 52 Sudoeste 0 -- -- 84
2020-09-25 05:00:00 10.1 35 Sudoeste 47 Sudoeste 0 -- -- 79
2020-09-25 04:00:00 10.3 34 Sudoeste 44 Sudoeste 0 -- -- 79
2020-09-25 03:00:00 10.1 26 Sudoeste 43 Sudoeste 0 -- -- 80
2020-09-25 02:00:00 10.7 36 Sudoeste 48 Sudoeste 0 -- -- 78
2020-09-25 01:00:00 11.4 30 Sudoeste 39 Sudoeste 0 -- -- 74
2020-09-25 00:00:00 11.6 20 Sudoeste 36 Sudoeste 0 -- -- 69
2020-09-24 23:00:00 11.3 11 Sudoeste 26 Sudoeste 0 -- -- 70
2020-09-24 22:00:00 12.6 19 Sudoeste 35 Sudoeste 0 -- -- 64
2020-09-24 21:00:00 13.9 21 Sudoeste 36 Sudoeste 0 -- -- 63
2020-09-24 20:00:00 16 28 Sudoeste 48 Sudoeste 0 -- -- 54
2020-09-24 19:00:00 17.5 35 Sudoeste 51 Sudoeste 0 -- -- 55
2020-09-24 18:00:00 18.8 33 Sudoeste 58 Sudoeste 0 -- -- 49
2020-09-24 17:00:00 19.2 38 Sudoeste 54 Sudoeste 0 -- -- 49
2020-09-24 16:00:00 19.2 36 Sudoeste 48 Sudoeste 0 -- -- 51
2020-09-24 15:00:00 17.6 32 Sudoeste 46 Sudoeste 0 -- -- 64
2020-09-24 14:00:00 16.7 29 Sudoeste 39 Sudoeste 0 -- -- 71
2020-09-24 13:00:00 15.7 22 Oeste 30 Sudoeste 0 -- -- 83
2020-09-24 12:00:00 14.7 22 Sudoeste 30 Sudoeste 0 -- -- 87
2020-09-24 11:00:00 14.4 15 Oeste 23 Sudoeste 0 -- -- 92
2020-09-24 10:00:00 14.2 9 Sudoeste 17 Sudoeste 0 -- -- 94
2020-09-24 09:00:00 13.7 -- -- 15 Sudoeste 0 -- -- 95
2020-09-24 08:00:00 13.5 7 Sudoeste 13 Sudoeste 0 -- -- 95
2020-09-24 07:00:00 13.6 9 Oeste 17 Oeste 0.2 -- -- 95
2020-09-24 06:00:00 13.9 9 Sudoeste 15 Sudoeste 0 -- -- 94
2020-09-24 05:00:00 13.9 6 Sudoeste 17 Oeste 1.2 -- -- 95
2020-09-24 04:00:00 14.1 4 Sudoeste 12 Oeste 0 -- -- 92
2020-09-24 03:00:00 13.7 0 Calma 7 Sudeste 0 -- -- 87
2020-09-24 02:00:00 14.4 6 Sur 13 Sur 0 -- -- 85
2020-09-24 01:00:00 14.8 9 Sur 13 Sur 0 -- -- 83
2020-09-24 00:00:00 15.1 8 Sur 17 Sur 0 -- -- 83
2020-09-23 23:00:00 15.4 6 Sur 12 Sur 0 -- -- 83
2020-09-23 22:00:00 15.6 8 Sudoeste 19 Sudoeste 0 -- -- 85
2020-09-23 21:00:00 16.2 9 Sudoeste 25 Sudoeste 0 -- -- 83
2020-09-23 20:00:00 16.1 18 Sudoeste 33 Sudoeste 0 -- -- 80
2020-09-23 19:00:00 16.3 21 Sudoeste 45 Sudoeste 0 -- -- 83
2020-09-23 18:00:00 18.6 32 Oeste 49 Sudoeste 0 -- -- 70
2020-09-23 17:00:00 20.8 28 Sudoeste 45 Sudoeste 0 -- -- 56
2020-09-23 16:00:00 21.1 26 Sudoeste 43 Sudoeste 0 -- -- 58
2020-09-23 15:00:00 19.9 28 Sudoeste 43 Sudoeste 0 -- -- 61
2020-09-23 14:00:00 19.3 31 Sudoeste 44 Sudoeste 0 -- -- 63
2020-09-23 13:00:00 19.8 27 Sudoeste 36 Sudoeste 0 -- -- 63
2020-09-23 12:00:00 19.1 4 Sudoeste 12 Sudoeste 0 -- -- 68
2020-09-23 11:00:00 18 4 Sur 10 Sudoeste 0 -- -- 73
2020-09-23 10:00:00 16.3 3 Sudoeste 6 Sudoeste 0 -- -- 80
2020-09-23 09:00:00 14.2 0 Calma 12 Sudeste 0 -- -- 89
2020-09-23 08:00:00 14.4 3 Sudeste 11 Sur 0.2 -- -- 90
2020-09-23 07:00:00 14.6 4 Sur 8 Sudoeste 0.4 -- -- 88
2020-09-23 06:00:00 14.8 3 Sudoeste 12 Sudoeste 0 -- -- 82
2020-09-23 05:00:00 14.6 6 Sur 10 Sur 0 -- -- 81
2020-09-23 04:00:00 14.5 6 Sudoeste 12 Sudoeste 0 -- -- 83
2020-09-23 03:00:00 13.6 4 Sur 5 Sur 0 -- -- 82
2020-09-23 02:00:00 14.4 0 Calma 4 Sur 0 -- -- 79
2020-09-23 01:00:00 15.2 0 Calma 7 Norte 0 -- -- 77
2020-09-23 00:00:00 15.6 -- -- 10 Sur 0 -- -- 74
2020-09-22 23:00:00 15.2 6 Sur 12 Sur 0 -- -- 75
2020-09-22 22:00:00 15.7 7 Sur 10 Sur 0 -- -- 72
2020-09-22 21:00:00 16.8 4 Sudoeste 15 Norte 0 -- -- 66
2020-09-22 20:00:00 18.7 12 Oeste 32 Sudoeste 0 -- -- 56
2020-09-22 19:00:00 21 23 Sudoeste 35 Sudoeste 0 -- -- 47
2020-09-22 18:00:00 21.2 18 Sudoeste 35 Sudoeste 0 -- -- 43
2020-09-22 17:00:00 21.2 16 Sudoeste 30 Sudoeste -- -- -- 45
2020-09-22 16:00:00 21.6 18 Sudoeste 30 Oeste 0 -- -- 42
2020-09-22 15:00:00 20.8 11 Noroeste 20 Sudoeste 0 -- -- 43
2020-09-22 14:00:00 19.6 11 Oeste 21 Oeste 0 -- -- 50
2020-09-22 13:00:00 18.6 6 Oeste 12 Sudoeste 0 -- -- 55
2020-09-22 12:00:00 16.9 4 Noroeste 10 Oeste 0 -- -- 63
2020-09-22 11:00:00 16.7 4 Norte 9 Noroeste 0 -- -- 62
2020-09-22 10:00:00 14.5 0 Calma 6 Este 0 -- -- 71
2020-09-22 09:00:00 10.6 0 Calma 6 Este 0 -- -- 85
2020-09-22 08:00:00 8.7 2 Sudeste 9 Sudeste 0 -- -- 86
2020-09-22 07:00:00 9.3 5 Sur 9 Sur 0 -- -- 84
2020-09-22 06:00:00 9.4 3 Sur 6 Sur 0 -- -- 85
2020-09-22 05:00:00 10.1 2 Sudeste 9 Sudeste 0 -- -- 82
2020-09-22 04:00:00 11.1 5 Sur 9 Sur 0 -- -- 77
2020-09-22 03:00:00 12.6 5 Sur 9 Sur 0 -- -- 72
2020-09-22 02:00:00 13.6 6 Sur 11 Sur 0 -- -- 71
2020-09-22 01:00:00 13.8 5 Sur 11 Sur 0 -- -- 69
2020-09-22 00:00:00 14.3 6 Sur 10 Sudeste 0 -- -- 65
2020-09-21 23:00:00 14.4 7 Sur 11 Sudoeste 0 -- -- 68
2020-09-21 22:00:00 15.5 7 Sudoeste 12 Sudoeste 0 -- -- 61
2020-09-21 21:00:00 16 6 Sudoeste 9 Sudoeste 0 -- -- 62
2020-09-21 20:00:00 18.2 5 Oeste 17 Noroeste 0 -- -- 55
2020-09-21 19:00:00 19.7 9 Noroeste 20 Oeste 0 -- -- 46
2020-09-21 18:00:00 20.6 9 Oeste 18 Sudoeste 0 -- -- 45
2020-09-21 17:00:00 19.6 5 Noroeste 21 Norte 0 -- -- 52
2020-09-21 16:00:00 20 -- -- 20 Norte 0 -- -- 52
2020-09-21 15:00:00 19.6 7 Noroeste 15 Oeste 0 -- -- 55
2020-09-21 14:00:00 19 4 Noroeste 10 Norte 0 -- -- 57
2020-09-21 13:00:00 17.4 3 Sudoeste 14 Oeste 0 -- -- 64
2020-09-21 12:00:00 15.5 4 Oeste 10 Noroeste 0 -- -- 77
2020-09-21 11:00:00 14.1 4 Oeste 10 Oeste 0 -- -- 83
2020-09-21 10:00:00 12.1 0 Calma 5 Sudeste 0 -- -- 92
2020-09-21 09:00:00 9.4 4 Sur 6 Sur 0 -- -- 95
2020-09-21 08:00:00 9.1 0 Calma 4 Sur 0 -- -- 94
2020-09-21 07:00:00 9.7 0 Calma 5 Sudeste 0 -- -- 93
2020-09-21 06:00:00 10.7 3 Este 9 Sur 0 -- -- 91
2020-09-21 05:00:00 11.5 5 Sur 11 Sur 0 -- -- 89
2020-09-21 04:00:00 11.7 7 Sur 12 Sur 0 -- -- 88
2020-09-21 03:00:00 12 6 Sur 14 Sur 0 -- -- 88
2020-09-21 02:00:00 12.4 8 Sur 11 Sur 0 -- -- 87
2020-09-21 01:00:00 12.9 4 Sudoeste 12 Sur 0 -- -- 86
2020-09-21 00:00:00 13.8 3 Sur 6 Sudoeste 0 -- -- 90
2020-09-20 23:00:00 14.6 2 Sur 7 Sudeste 0 -- -- 89
2020-09-20 22:00:00 15 3 Sudeste 8 Noroeste 0 -- -- 90
2020-09-20 21:00:00 15 6 Noroeste 28 Oeste 0 -- -- 88
2020-09-20 20:00:00 17.1 16 Oeste 32 Oeste 0 -- -- 79
2020-09-20 19:00:00 17.5 23 Sudoeste 37 Sudoeste 0 -- -- 78
2020-09-20 18:00:00 18.8 24 Oeste 39 Sudoeste 0 -- -- 73
2020-09-20 17:00:00 18.1 27 Sudoeste 53 Sudoeste 0.2 -- -- 75
2020-09-20 16:00:00 19.3 29 Sudoeste 54 Sudoeste 0 -- -- 73
2020-09-20 15:00:00 16.5 31 Sudoeste 46 Sudoeste 0 -- -- 86
2020-09-20 14:00:00 20 26 Sudoeste 38 Sudoeste 0 -- -- 65
2020-09-20 13:00:00 18.2 27 Sudoeste 37 Sudoeste 0 -- -- 72
2020-09-20 12:00:00 17.5 2 Norte 6 Noroeste 0 -- -- 75
2020-09-20 11:00:00 16.4 4 Oeste 9 Oeste 0 -- -- 79
2020-09-20 10:00:00 15.9 2 Sur 5 Sudeste 0 -- -- 79
2020-09-20 09:00:00 14.6 0 Calma 7 Sudeste 0 -- -- 90
2020-09-20 08:00:00 14.4 5 Este 9 Este 0 -- -- 89
2020-09-20 07:00:00 14.4 4 Este 7 Este 0 -- -- 90
2020-09-20 06:00:00 14.6 2 Sudeste 7 Sudeste 0 -- -- 88
2020-09-20 05:00:00 14.6 2 Sudeste 8 Sudoeste 0 -- -- 86
2020-09-20 04:00:00 14.5 4 Sudoeste 9 Sur 0 -- -- 87
2020-09-20 03:00:00 14.7 5 Este 8 Sur 0 -- -- 88
2020-09-20 02:00:00 14.6 5 Sudoeste 23 Sudoeste 0 -- -- 87
2020-09-20 01:00:00 14.9 13 Sudoeste 22 Sudoeste 0 -- -- 84
2020-09-20 00:00:00 14.7 3 Sur 7 Sudoeste 0 -- -- 85
2020-09-19 23:00:00 14.4 3 Sudeste 6 Sudoeste 0 -- -- 87
2020-09-19 22:00:00 14.4 4 Sudoeste 10 Oeste 0 -- -- 87
2020-09-19 21:00:00 14.4 9 Sudoeste 16 Sudoeste 0 -- -- 86
2020-09-19 20:00:00 14.1 12 Sudoeste 30 Sudoeste 0.4 -- -- 84
2020-09-19 19:00:00 16.7 17 Sudoeste 38 Sudoeste 0 -- -- 62
2020-09-19 18:00:00 17.6 21 Sudoeste 37 Sudoeste 0 -- -- 62
2020-09-19 17:00:00 17.3 21 Sudoeste 39 Sudoeste 0 -- -- 66
2020-09-19 16:00:00 18.5 26 Sudoeste 40 Sudoeste 0 -- -- 62
2020-09-19 15:00:00 18 27 Sudoeste 41 Sudoeste 0 -- -- 65
2020-09-19 14:00:00 17.6 26 Sudoeste 40 Sudoeste 0 -- -- 70
2020-09-19 13:00:00 16.8 20 Sudoeste 41 Sudoeste 0 -- -- 78
2020-09-19 12:00:00 16 19 Sudoeste 37 Sudoeste 0 -- -- 76
2020-09-19 11:00:00 15.1 19 Sudoeste 36 Sudoeste 0 -- -- 81
2020-09-19 10:00:00 14.6 14 Sudoeste 28 Sudoeste 0 -- -- 83
2020-09-19 09:00:00 14 14 Sur 25 Sur 0 -- -- 83
2020-09-19 08:00:00 13.3 3 Sudeste 10 Este 0 -- -- 88
2020-09-19 07:00:00 13.4 5 Sudeste 22 Sudeste 0 -- -- 90
2020-09-19 06:00:00 13 11 Sudeste 28 Sudeste 1.2 -- -- 90
2020-09-19 05:00:00 13.3 11 Este 24 Sudeste 0.4 -- -- 86
2020-09-19 04:00:00 13.2 9 Sudeste 16 Sudeste 0 -- -- 88
2020-09-19 03:00:00 12.6 7 Sudeste 16 Este 0 -- -- 88
2020-09-19 02:00:00 13.1 10 Este 16 Este 0 -- -- 89
2020-09-19 01:00:00 12.6 10 Este 20 Este 1.6 -- -- 93
2020-09-19 00:00:00 12.8 8 Este 21 Este 3.2 -- -- 91
2020-09-18 23:00:00 13.1 13 Este 36 Sudeste 1.2 -- -- 89
2020-09-18 22:00:00 13.4 15 Sudeste 25 Sudeste 0 -- -- 86
2020-09-18 21:00:00 13.2 15 Este 27 Este 0 -- -- 83
2020-09-18 20:00:00 12.6 8 Nordeste 27 Este 0 -- -- 91
2020-09-18 19:00:00 12.3 12 Nordeste 33 Este 5.6 -- -- 91
2020-09-18 18:00:00 14.3 14 Sur 34 Sudeste 4 -- -- 88
2020-09-18 17:00:00 18.8 13 Sudeste 36 Sudeste 0 -- -- 56
2020-09-18 16:00:00 20.7 16 Sudeste 34 Sudeste 0 -- -- 47
2020-09-18 15:00:00 21.2 18 Sudeste 35 Sudeste 0 -- -- 49
2020-09-18 14:00:00 20.5 18 Sudeste 37 Sudeste 0 -- -- 50
2020-09-18 13:00:00 19.3 14 Sudeste 27 Sudeste 0 -- -- 54
2020-09-18 12:00:00 17.5 12 Sudeste 26 Sudeste 0 -- -- 69
2020-09-18 11:00:00 14.4 10 Este 19 Este 0 -- -- 93
2020-09-18 10:00:00 12.8 12 Este 18 Este 1.2 -- -- 95
2020-09-18 09:00:00 12.8 3 Sudeste 13 Sudoeste 1.4 -- -- 96
2020-09-18 08:00:00 12.8 6 Sudoeste 28 Sudoeste 1.2 -- -- 94
2020-09-18 07:00:00 12.7 8 Este 17 Norte 0 -- -- 92
2020-09-18 06:00:00 12.6 6 Nordeste 18 Nordeste 1.6 -- -- 93
2020-09-18 05:00:00 12.9 11 Sur 28 Sur 4.2 -- -- 89
2020-09-18 04:00:00 13.6 13 Sur 44 Sur 5.4 -- -- 85
2020-09-18 03:00:00 15.8 9 Este 18 Este 0 -- -- 87
2020-09-18 02:00:00 15.8 9 Oeste 15 Este 0 -- -- 88
2020-09-18 01:00:00 15.7 13 Este 22 Este 0 -- -- 86
2020-09-18 00:00:00 15.9 6 Nordeste 15 Este 0 -- -- 89
2020-09-17 23:00:00 16.3 10 Sudeste 17 Sudeste 1.2 -- -- 85
2020-09-17 22:00:00 17.9 4 Sur 39 Este 0.2 -- -- 78
2020-09-17 21:00:00 20.1 14 Nordeste 25 Este 0 -- -- 66
2020-09-17 20:00:00 21.2 16 Este 44 Sudeste 0 -- -- 61
2020-09-17 19:00:00 22.1 29 Sudeste 49 Sudeste 0 -- -- 58
2020-09-17 18:00:00 23.3 18 Sudeste 46 Sudeste 0 -- -- 53
2020-09-17 17:00:00 23.8 21 Sudeste 40 Este 0 -- -- 53
2020-09-17 16:00:00 23.5 23 Este 42 Este 0 -- -- 51
2020-09-17 15:00:00 24.1 17 Sudeste 36 Este 0 -- -- 48
2020-09-17 14:00:00 23.1 20 Sudeste 48 Sudeste 0 -- -- 52
2020-09-17 13:00:00 22 30 Sudeste 50 Este 0 -- -- 57
2020-09-17 12:00:00 20.4 32 Este 48 Este 0 -- -- 63
2020-09-17 11:00:00 19.1 25 Este 41 Este 0 -- -- 66
2020-09-17 10:00:00 17.9 16 Este 28 Sudeste 0 -- -- 72
2020-09-17 09:00:00 16.7 14 Sudeste 23 Este 0 -- -- 79
2020-09-17 08:00:00 16.5 11 Sudeste 31 Sudeste 0 -- -- 79
2020-09-17 07:00:00 16.9 17 Sudeste 26 Sudeste 0 -- -- 75
2020-09-17 06:00:00 17.1 7 Este 22 Este 0 -- -- 73
2020-09-17 05:00:00 17.3 10 Este 27 Este 0 -- -- 71
2020-09-17 04:00:00 17.6 15 Este 28 Este 0 -- -- 73
2020-09-17 03:00:00 17.5 15 Este 24 Este 0 -- -- 73
2020-09-17 02:00:00 16.4 4 Nordeste 14 Sur 0 -- -- 81
2020-09-17 01:00:00 17 5 Sur 29 Sudeste 0.2 -- -- 74
2020-09-17 00:00:00 18.1 8 Este 24 Este 0 -- -- 70
2020-09-16 23:00:00 18.9 10 Sudeste 64 Sudeste 0.2 -- -- 58
2020-09-16 22:00:00 21.8 4 Sur 8 Este 0 -- -- 41
2020-09-16 21:00:00 23.6 3 Sudeste 17 Sudeste 0 -- -- 38
2020-09-16 20:00:00 25.7 9 Sudeste 22 Sudeste 0 -- -- 33
2020-09-16 19:00:00 26.7 13 Este 27 Este 0 -- -- 29
2020-09-16 18:00:00 27.5 12 Sudeste 32 Este 0 -- -- 27
2020-09-16 17:00:00 27.6 17 Este 28 Este 0 -- -- 28
2020-09-16 16:00:00 27.9 14 Este 26 Este 0 -- -- 30
2020-09-16 15:00:00 26.8 12 Sudeste 26 Sudeste 0 -- -- 34
2020-09-16 14:00:00 27.3 15 Este 27 Este 0 -- -- 34
2020-09-16 13:00:00 25.8 10 Este 17 Este 0 -- -- 37
2020-09-16 12:00:00 24.2 9 Este 16 Este 0 -- -- 44
2020-09-16 11:00:00 22.4 8 Este 16 Sudeste 0 -- -- 48
2020-09-16 10:00:00 18.2 6 Este 13 Sudeste 0 -- -- 65
2020-09-16 09:00:00 13.9 5 Este 10 Este 0 -- -- 79
2020-09-16 08:00:00 12 3 Sudeste 6 Sudeste 0 -- -- 81
2020-09-16 07:00:00 12.4 3 Sur 6 Sudeste 0 -- -- 80
2020-09-16 06:00:00 13 3 Sudeste 6 Sudeste 0 -- -- 77
2020-09-16 05:00:00 13.3 0 Calma 12 Sudeste 0 -- -- 75
2020-09-16 04:00:00 14.5 6 Sudeste 10 Sudeste 0 -- -- 72
2020-09-16 03:00:00 15.8 6 Sudeste 12 Sudeste 0 -- -- 67
2020-09-16 02:00:00 14.5 6 Sudeste 9 Sur 0 -- -- 73
2020-09-16 01:00:00 14.6 7 Sur 10 Sur 0 -- -- 72
2020-09-16 00:00:00 16.1 4 Sudeste 12 Sur 0 -- -- 68
2020-09-15 23:00:00 17.8 3 Sur 10 Sur 0 -- -- 61
2020-09-15 22:00:00 19.7 8 Sur 12 Sur 0 -- -- 57
2020-09-15 21:00:00 22 10 Sudoeste 16 Sudoeste 0 -- -- 52
2020-09-15 20:00:00 24.4 4 Sudoeste 17 Sudeste 0 -- -- 41
2020-09-15 19:00:00 25.8 10 Sudeste 24 Sudeste 0 -- -- 37
2020-09-15 18:00:00 26.5 8 Sudeste 33 Sudeste 0 -- -- 37
2020-09-15 17:00:00 26.8 8 Sudeste 28 Este 0 -- -- 35
2020-09-15 16:00:00 27 10 Sudeste 26 Sur 0 -- -- 38
2020-09-15 15:00:00 26.5 11 Sudeste 25 Este 0 -- -- 40
2020-09-15 14:00:00 25.4 15 Sudeste 30 Este 0 -- -- 44
2020-09-15 13:00:00 24.4 15 Sudeste 27 Sudeste 0 -- -- 51
2020-09-15 12:00:00 23.4 13 Sudeste 20 Este 0 -- -- 57
2020-09-15 11:00:00 20.6 4 Nordeste 8 Este 0 -- -- 68
2020-09-15 10:00:00 18.1 0 Calma 6 Sur 0 -- -- 80
2020-09-15 09:00:00 14.5 0 Calma 10 Sur 0 -- -- 88
2020-09-15 08:00:00 13 4 Sur 8 Sur 0 -- -- 90
2020-09-15 07:00:00 13.6 3 Sudeste 9 Sudeste 0 -- -- 88
2020-09-15 06:00:00 13.9 2 Sur 6 Sur 0 -- -- 87
2020-09-15 05:00:00 14.6 2 Sur 9 Este 0 -- -- 85
2020-09-15 04:00:00 15.6 4 Sur 19 Sudeste 0 -- -- 84
2020-09-15 03:00:00 15.9 10 Sudeste 14 Sudeste 0 -- -- 88
2020-09-15 02:00:00 16.2 6 Este 15 Sudoeste 0 -- -- 89
2020-09-15 01:00:00 17.1 16 Sudoeste 25 Sudoeste 0 -- -- 86
2020-09-15 00:00:00 17.4 10 Este 17 Nordeste 0 -- -- 83
2020-09-14 23:00:00 18.5 12 Nordeste 47 Sudoeste 1.6 -- -- 75
2020-09-14 22:00:00 23.7 12 Sudeste 20 Este 0 -- -- 40
2020-09-14 21:00:00 24.1 11 Sudeste 25 Sudeste 0 -- -- 39
2020-09-14 20:00:00 26 16 Sudeste 32 Sudeste 0 -- -- 35
2020-09-14 19:00:00 27 19 Sudeste 37 Sudeste 0 -- -- 34
2020-09-14 18:00:00 28.1 21 Sudeste 39 Sudeste 0 -- -- 33
2020-09-14 17:00:00 28.9 15 Sudeste 38 Este 0 -- -- 33
2020-09-14 16:00:00 28.7 24 Sudeste 40 Este 0 -- -- 32
2020-09-14 15:00:00 27.3 17 Sudeste 34 Sudeste 0 -- -- 36
2020-09-14 14:00:00 24 15 Sudeste 29 Sudeste 0 -- -- 43
2020-09-14 13:00:00 22.6 14 Sudeste 22 Sudeste 0 -- -- 47
2020-09-14 12:00:00 21.9 11 Sudeste 31 Sudeste 0 -- -- 49
2020-09-14 11:00:00 20.4 19 Sudeste 33 Este 0 -- -- 53
2020-09-14 10:00:00 19.7 21 Este 33 Este 0 -- -- 56
2020-09-14 09:00:00 19.7 20 Sudeste 30 Este 0 -- -- 55
2020-09-14 08:00:00 18.7 15 Este 27 Este 0 -- -- 57
2020-09-14 07:00:00 19.5 17 Sudeste 37 Este 0 -- -- 55
2020-09-14 06:00:00 19.9 17 Este 30 Sudeste 0 -- -- 53
2020-09-14 05:00:00 20.9 14 Este 37 Este 0 -- -- 50
2020-09-14 04:00:00 21.7 26 Este 45 Sudeste 0 -- -- 47
2020-09-14 03:00:00 22.4 23 Sudeste 46 Sudeste 0 -- -- 43
2020-09-14 02:00:00 23.1 25 Sudeste 41 Sudeste 0 -- -- 40
2020-09-14 01:00:00 23.6 22 Sudeste 35 Sudeste 0 -- -- 37
2020-09-14 00:00:00 24.3 20 Sudeste 32 Sudeste 0 -- -- 34
2020-09-13 23:00:00 24 13 Sudeste 24 Sudeste 0 -- -- 34
2020-09-13 22:00:00 25.3 14 Sudeste 31 Sudeste 0 -- -- 31
2020-09-13 21:00:00 26.2 17 Sudeste 33 Sudeste 0 -- -- 30
2020-09-13 20:00:00 27.2 16 Sudeste 35 Sudeste 0 -- -- 30
2020-09-13 19:00:00 29 25 Sudeste 39 Este 0 -- -- 29
2020-09-13 18:00:00 29.3 26 Sudeste 39 Sudeste 0 -- -- 28
2020-09-13 17:00:00 29.8 22 Sudeste 42 Sudeste 0 -- -- 27
2020-09-13 16:00:00 30.2 26 Sudeste 39 Este 0 -- -- 28
2020-09-13 15:00:00 31 21 Sudeste 36 Sudeste 0 -- -- 27
2020-09-13 14:00:00 30.1 18 Sudeste 33 Sudeste 0 -- -- 29
2020-09-13 13:00:00 28.2 21 Sudeste 36 Sudeste 0 -- -- 32
2020-09-13 12:00:00 27.3 21 Sudeste 38 Sudeste 0 -- -- 34
2020-09-13 11:00:00 25.5 25 Sudeste 43 Sudeste 0 -- -- 38
2020-09-13 10:00:00 23.5 24 Sudeste 41 Sudeste 0 -- -- 42
2020-09-13 09:00:00 21.6 24 Sudeste 40 Sudeste 0 -- -- 46
2020-09-13 08:00:00 20.5 23 Sudeste 42 Sudeste 0 -- -- 49
2020-09-13 07:00:00 21 20 Sudeste 37 Sudeste 0 -- -- 45
2020-09-13 06:00:00 21.7 21 Sudeste 41 Sudeste 0 -- -- 40
2020-09-13 05:00:00 21.5 16 Sudeste 27 Sudeste 0 -- -- 39
2020-09-13 04:00:00 18.3 8 Sudeste 23 Este 0 -- -- 42
2020-09-13 03:00:00 15.2 5 Sur 6 Sudeste 0 -- -- 45
2020-09-13 02:00:00 16.7 4 Sur 12 Sur 0 -- -- 41
2020-09-13 01:00:00 16.9 0 Calma 6 Sudeste 0 -- -- 42
2020-09-13 00:00:00 20.1 5 Sudeste 16 Noroeste 0 -- -- 34
2020-09-12 23:00:00 20.9 6 Sudeste 12 Nordeste 0 -- -- 30
2020-09-12 22:00:00 24.1 6 Nordeste 14 Este 0 -- -- 23
2020-09-12 21:00:00 25 4 Este 8 Norte 0 -- -- 26
2020-09-12 20:00:00 27.3 6 Norte 17 Norte 0 -- -- 22
2020-09-12 19:00:00 29.3 12 Noroeste 24 Oeste 0 -- -- 20
2020-09-12 18:00:00 29.8 8 Noroeste 22 Norte 0 -- -- 20
2020-09-12 17:00:00 30.5 10 Noroeste 23 Noroeste 0 -- -- 20
2020-09-12 16:00:00 30.5 9 Noroeste 30 Noroeste 0 -- -- 20
2020-09-12 15:00:00 30.4 6 Sudeste 26 Nordeste 0 -- -- 20
2020-09-12 14:00:00 29.4 12 Norte 23 Noroeste 0 -- -- 20
2020-09-12 13:00:00 28.6 12 Nordeste 23 Nordeste 0 -- -- 19
2020-09-12 12:00:00 27.5 14 Norte 23 Nordeste 0 -- -- 22
2020-09-12 11:00:00 25.6 9 Nordeste 14 Nordeste 0 -- -- 26
2020-09-12 10:00:00 21.5 5 Este 8 Este 0 -- -- 38
2020-09-12 09:00:00 15.5 3 Este 6 Sur 0 -- -- 49
2020-09-12 08:00:00 10.8 2 Sur 7 Sur 0 -- -- 54
2020-09-12 07:00:00 11.5 2 Sudeste 7 Sur 0 -- -- 53
2020-09-12 06:00:00 12.2 0 Calma 5 Sudeste 0 -- -- 51
2020-09-12 05:00:00 12.7 0 Calma 6 Sudeste 0 -- -- 48
2020-09-12 04:00:00 14.1 2 Sudeste 5 Sur 0 -- -- 47
2020-09-12 03:00:00 15.2 3 Sur 9 Sudeste 0 -- -- 43
2020-09-12 02:00:00 17.3 6 Este 12 Sudeste 0 -- -- 40
2020-09-12 01:00:00 15.8 4 Sudeste 11 Este 0 -- -- 46
2020-09-12 00:00:00 17.2 6 Este 10 Nordeste 0 -- -- 44
2020-09-11 23:00:00 17.6 4 Sur 5 Sur 0 -- -- 42
2020-09-11 22:00:00 21.2 3 Nordeste 8 Noroeste 0 -- -- 35
2020-09-11 21:00:00 23.7 3 Norte 9 Noroeste 0 -- -- 30
2020-09-11 20:00:00 26 8 Noroeste 19 Noroeste 0 -- -- 27
2020-09-11 19:00:00 27.9 13 Noroeste 20 Noroeste 0 -- -- 23
2020-09-11 18:00:00 28.2 10 Noroeste 22 Norte 0 -- -- 24
2020-09-11 17:00:00 28.8 11 Norte 27 Noroeste 0 -- -- 23
2020-09-11 16:00:00 28.6 10 Norte 21 Nordeste 0 -- -- 24
2020-09-11 15:00:00 28.5 9 Oeste 27 Oeste 0 -- -- 24
2020-09-11 14:00:00 28.2 11 Norte 25 Norte 0 -- -- 25
2020-09-11 13:00:00 27.3 9 Nordeste 18 Nordeste 0 -- -- 26
2020-09-11 12:00:00 26.5 6 Norte 16 Nordeste 0 -- -- 29
2020-09-11 11:00:00 24.3 10 Este 14 Este 0 -- -- 34
2020-09-11 10:00:00 21.1 4 Este 8 Sudeste 0 -- -- 40
2020-09-11 09:00:00 14.9 0 Calma 8 Este 0 -- -- 54
2020-09-11 08:00:00 10.7 2 Nordeste 5 Este 0 -- -- 64
2020-09-11 07:00:00 11.1 0 Calma 5 Sudeste 0 -- -- 59
2020-09-11 06:00:00 12.1 2 Sur 8 Sudeste 0 -- -- 58
2020-09-11 05:00:00 12.9 3 Sudeste 8 Sur 0 -- -- 55
2020-09-11 04:00:00 13 5 Sur 9 Sur 0 -- -- 54
2020-09-11 03:00:00 12.6 2 Sudeste 6 Sur 0 -- -- 53
2020-09-11 02:00:00 13.8 3 Sur 9 Sur 0 -- -- 52
2020-09-11 01:00:00 14.2 5 Sur 7 Sur 0 -- -- 49
2020-09-11 00:00:00 15.4 4 Sur 9 Sur 0 -- -- 45
2020-09-10 23:00:00 16.3 5 Sur 7 Sur 0 -- -- 43
2020-09-10 22:00:00 19 0 Calma 6 Noroeste 0 -- -- 39
2020-09-10 21:00:00 22.6 5 Noroeste 13 Noroeste 0 -- -- 32
2020-09-10 20:00:00 25.9 10 Noroeste 20 Noroeste 0 -- -- 28
2020-09-10 19:00:00 26.5 9 Noroeste 22 Noroeste 0 -- -- 28
2020-09-10 18:00:00 27.2 9 Noroeste 24 Norte 0 -- -- 27
2020-09-10 17:00:00 27.3 6 Nordeste 19 Norte 0 -- -- 27
2020-09-10 16:00:00 27.2 11 Noroeste 24 Noroeste 0 -- -- 29
2020-09-10 15:00:00 26.8 13 Noroeste 25 Noroeste 0 -- -- 29
2020-09-10 14:00:00 26 9 Norte 20 Norte 0 -- -- 31
2020-09-10 13:00:00 24.4 6 Nordeste 15 Norte 0 -- -- 34
2020-09-10 12:00:00 22.3 5 Oeste 11 Noroeste 0 -- -- 39
2020-09-10 11:00:00 19.6 7 Noroeste 13 Noroeste 0 -- -- 47
2020-09-10 10:00:00 16.7 6 Noroeste 11 Oeste 0 -- -- 49
2020-09-10 09:00:00 13.1 5 Sudoeste 12 Sur 0 -- -- 56
2020-09-10 08:00:00 9.4 5 Sur 10 Sur 0 -- -- 64
2020-09-10 07:00:00 9.7 0 Calma 10 Sur 0 -- -- 60
2020-09-10 06:00:00 10.2 6 Sur 8 Sur 0 -- -- 60
2020-09-10 05:00:00 10.8 3 Sur 6 Norte 0 -- -- 56
2020-09-10 04:00:00 12.5 3 Sur 9 Sur 0 -- -- 51
2020-09-10 03:00:00 13.1 7 Sur 11 Sur 0 -- -- 51
2020-09-10 02:00:00 13.9 8 Sur 10 Sur 0 -- -- 46
2020-09-10 01:00:00 14.4 5 Sur 9 Sur 0 -- -- 45
2020-09-10 00:00:00 16 7 Sur 12 Sudoeste 0 -- -- 41
2020-09-09 23:00:00 16.6 8 Sur 10 Sur 0 -- -- 39
2020-09-09 22:00:00 19 3 Sudoeste 7 Oeste 0 -- -- 35
2020-09-09 21:00:00 22.3 4 Noroeste 17 Noroeste 0 -- -- 29
2020-09-09 20:00:00 25.4 12 Noroeste 23 Noroeste 0 -- -- 26
2020-09-09 19:00:00 26.2 8 Noroeste 23 Norte 0 -- -- 27
2020-09-09 18:00:00 26.8 9 Noroeste 19 Noroeste 0 -- -- 24
2020-09-09 17:00:00 27.5 5 Oeste 27 Noroeste 0 -- -- 23
2020-09-09 16:00:00 27.2 6 Sudoeste 18 Norte 0 -- -- 24
2020-09-09 15:00:00 27 10 Norte 21 Norte 0 -- -- 24
2020-09-09 14:00:00 26.1 13 Norte 21 Norte 0 -- -- 24
2020-09-09 13:00:00 25.5 5 Nordeste 17 Sudeste 0 -- -- 26
2020-09-09 12:00:00 24.5 7 Nordeste 21 Este 0 -- -- 28
2020-09-09 11:00:00 22.8 14 Sudeste 26 Sudeste 0 -- -- 35
2020-09-09 10:00:00 20 13 Sudeste 28 Sudeste 0 -- -- 44
2020-09-09 09:00:00 17.3 16 Sudeste 31 Sudeste 0 -- -- 53
2020-09-09 08:00:00 15.5 14 Sudeste 24 Sudeste 0 -- -- 59
2020-09-09 07:00:00 14.5 4 Sur 21 Sudeste 0 -- -- 56
2020-09-09 06:00:00 15.4 14 Sudeste 27 Sudeste 0 -- -- 53
2020-09-09 05:00:00 14.9 12 Sudeste 22 Sudeste 0 -- -- 50
2020-09-09 04:00:00 14.8 3 Sudoeste 15 Sudeste 0 -- -- 47
2020-09-09 03:00:00 14.9 11 Este 18 Este 0 -- -- 47
2020-09-09 02:00:00 16.1 8 Sudeste 16 Sudeste 0 -- -- 43
2020-09-09 01:00:00 16.2 8 Sudeste 18 Sudeste 0 -- -- 42
2020-09-09 00:00:00 17.8 9 Sudeste 22 Sudeste 0 -- -- 37
2020-09-08 23:00:00 18.8 13 Sudeste 22 Sudeste 0 -- -- 35
2020-09-08 22:00:00 19.7 15 Sudeste 26 Sudeste 0 -- -- 32
2020-09-08 21:00:00 20.3 10 Sudeste 20 Sudeste 0 -- -- 30
2020-09-08 20:00:00 22.7 15 Sudeste 29 Sudeste 0 -- -- 27
2020-09-08 19:00:00 24 13 Sudeste 28 Sudeste 0 -- -- 26
2020-09-08 18:00:00 25.1 9 Sudeste 25 Este 0 -- -- 25
2020-09-08 17:00:00 25.3 14 Este 27 Este 0 -- -- 25
2020-09-08 16:00:00 25.1 9 Sudeste 27 Este 0 -- -- 26
2020-09-08 15:00:00 24.7 13 Sudeste 31 Este 0 -- -- 28
2020-09-08 14:00:00 23.7 12 Sudeste 30 Sudeste 0 -- -- 32
2020-09-08 13:00:00 22.4 14 Sudeste 31 Sudeste 0 -- -- 36
2020-09-08 12:00:00 21.1 14 Sudeste 33 Este 0 -- -- 34
2020-09-08 11:00:00 18.6 14 Sudeste 32 Sudeste 0 -- -- 37
2020-09-08 10:00:00 14.2 9 Este 14 Este 0 -- -- 50
2020-09-08 09:00:00 9.6 5 Este 9 Sudeste 0 -- -- 67
2020-09-08 08:00:00 3.6 4 Sudeste 8 Sudeste 0 -- -- 83
2020-09-08 07:00:00 3.8 0 Calma 3 Este 0 -- -- 78
2020-09-08 06:00:00 4.4 0 Calma 6 Sudeste 0 -- -- 72
2020-09-08 05:00:00 5.3 3 Sur 8 Sur 0 -- -- 72
2020-09-08 04:00:00 6.4 5 Sur 9 Sur 0 -- -- 69
2020-09-08 03:00:00 6.8 3 Sur 7 Sur 0 -- -- 65
2020-09-08 02:00:00 8.6 0 Calma 4 Sudoeste 0 -- -- 61
2020-09-08 01:00:00 10.5 2 Nordeste 6 Noroeste 0 -- -- 57
2020-09-08 00:00:00 11.9 4 Norte 9 Nordeste 0 -- -- 54
2020-09-07 23:00:00 13.4 0 Calma 14 Nordeste 0 -- -- 48
2020-09-07 22:00:00 15.6 10 Norte 21 Norte 0 -- -- 44
2020-09-07 21:00:00 17.7 13 Norte 28 Norte 0 -- -- 39
2020-09-07 20:00:00 20.6 18 Norte 25 Norte 0 -- -- 35
2020-09-07 19:00:00 22 15 Norte 24 Norte 0 -- -- 31
2020-09-07 18:00:00 22.7 13 Norte 23 Norte 0 -- -- 30
2020-09-07 17:00:00 22.7 11 Noroeste 36 Nordeste 0 -- -- 31
2020-09-07 16:00:00 22.5 8 Norte 29 Noroeste 0 -- -- 30
2020-09-07 15:00:00 21.5 10 Norte 24 Norte 0 -- -- 33
2020-09-07 14:00:00 19.7 6 Noroeste 21 Nordeste 0 -- -- 39
2020-09-07 13:00:00 18.5 13 Norte 23 Norte -- -- -- 41
2020-09-07 12:00:00 16.7 13 Nordeste 27 Norte 0 -- -- 50
2020-09-07 11:00:00 14.5 13 Nordeste 25 Nordeste 0 -- -- 59
2020-09-07 10:00:00 13.3 8 Norte 14 Norte 0 -- -- 64
2020-09-07 09:00:00 10 3 Sudoeste 8 Sudoeste 0 -- -- 76
2020-09-07 08:00:00 7.2 4 Sudoeste 7 Sudoeste 0 -- -- 83
2020-09-07 07:00:00 7.5 5 Sur 6 Sur 0 -- -- 79
2020-09-07 06:00:00 8.3 3 Sur 6 Sur 0 -- -- 78
2020-09-07 05:00:00 9.2 2 Noroeste 8 Sudoeste 0 -- -- 74
2020-09-07 04:00:00 10.1 3 Sudoeste 4 Sudoeste 0 -- -- 69
2020-09-07 03:00:00 10.9 0 Calma 4 Noroeste 0 -- -- 69
2020-09-07 02:00:00 12.4 0 Calma 13 Norte 0 -- -- 65
2020-09-07 01:00:00 13.1 9 Norte 12 Norte 0 -- -- 63
2020-09-07 00:00:00 14.9 2 Nordeste 14 Norte 0 -- -- 56
2020-09-06 23:00:00 17.2 10 Nordeste 21 Norte 0 -- -- 50
2020-09-06 22:00:00 19.6 12 Nordeste 23 Norte 0 -- -- 46
2020-09-06 21:00:00 22.7 17 Norte 28 Norte 0 -- -- 41
2020-09-06 20:00:00 25.6 17 Norte 32 Norte 0 -- -- 36
2020-09-06 19:00:00 27.9 15 Noroeste 27 Noroeste 0 -- -- 31
2020-09-06 18:00:00 28.5 15 Noroeste 27 Noroeste 0 -- -- 31
2020-09-06 17:00:00 29.3 12 Noroeste 29 Noroeste 0 -- -- 31
2020-09-06 16:00:00 28.6 9 Norte 22 Noroeste 0 -- -- 33
2020-09-06 15:00:00 28.1 8 Noroeste 19 Norte 0 -- -- 35
2020-09-06 14:00:00 26.5 6 Noroeste 17 Noroeste 0 -- -- 38
2020-09-06 13:00:00 24 7 Norte 15 Norte 0 -- -- 43
2020-09-06 12:00:00 21.8 6 Norte 15 Noroeste 0 -- -- 52
2020-09-06 11:00:00 18.9 3 Nordeste 8 Noroeste 0 -- -- 61
2020-09-06 10:00:00 15.5 0 Calma 7 Oeste 0 -- -- 72
2020-09-06 09:00:00 12.1 2 Sudoeste 8 Sur 0 -- -- 80
2020-09-06 08:00:00 10.1 4 Sur 6 Sur 0 -- -- 79
2020-09-06 07:00:00 10.6 3 Sur 5 Sur 0 -- -- 78
2020-09-06 06:00:00 11.3 0 Calma 4 Oeste 0 -- -- 73
2020-09-06 05:00:00 12.6 3 Sudoeste 6 Sur 0 -- -- 72
2020-09-06 04:00:00 13.4 0 Calma 10 Sudeste 0 -- -- 67
2020-09-06 03:00:00 14.7 7 Sudeste 14 Sudeste 0 -- -- 67
2020-09-06 02:00:00 16.5 4 Norte 10 Noroeste 0 -- -- 64
2020-09-06 01:00:00 18 7 Noroeste 10 Noroeste 0 -- -- 57
2020-09-06 00:00:00 19.7 5 Nordeste 10 Nordeste 0 -- -- 51
2020-09-05 23:00:00 22 10 Nordeste 22 Nordeste 0 -- -- 44
2020-09-05 22:00:00 24.7 18 Nordeste 40 Norte 0 -- -- 37
2020-09-05 21:00:00 28.2 9 Norte 36 Norte 0 -- -- 28
2020-09-05 20:00:00 30 4 Este 17 Noroeste 0 -- -- 25
2020-09-05 19:00:00 30.7 3 Norte 17 Nordeste 0 -- -- 25
2020-09-05 18:00:00 30.7 13 Nordeste 26 Norte 0 -- -- 24
2020-09-05 17:00:00 31.2 12 Este 26 Nordeste 0 -- -- 23
2020-09-05 16:00:00 31.7 8 Sudeste 23 Nordeste 0 -- -- 23
2020-09-05 15:00:00 31.4 13 Nordeste 23 Norte 0 -- -- 23
2020-09-05 14:00:00 30.3 9 Norte 22 Norte 0 -- -- 24
2020-09-05 13:00:00 29 6 Norte 15 Noroeste 0 -- -- 26
2020-09-05 12:00:00 27.2 5 Noroeste 10 Noroeste 0 -- -- 28
2020-09-05 11:00:00 25.1 4 Nordeste 8 Norte 0 -- -- 32
2020-09-05 10:00:00 22.9 4 Noroeste 7 Noroeste 0 -- -- 36
2020-09-05 09:00:00 18.2 0 Calma 6 Este 0 -- -- 49
2020-09-05 08:00:00 14.8 3 Norte 13 Sur 0 -- -- 52
2020-09-05 07:00:00 16.2 9 Sur 13 Sur 0 -- -- 49
2020-09-05 06:00:00 17.1 7 Sur 10 Sur 0 -- -- 46
2020-09-05 05:00:00 18.5 6 Sur 12 Sudeste 0 -- -- 43
2020-09-05 04:00:00 17.3 5 Sudoeste 14 Sudeste 0 -- -- 45
2020-09-05 03:00:00 19.8 8 Sudeste 15 Este 0 -- -- 40
2020-09-05 02:00:00 19.4 6 Sur 13 Sur 0 -- -- 41
2020-09-05 01:00:00 21.2 6 Sur 13 Sur 0 -- -- 37
2020-09-05 00:00:00 22.6 6 Sudeste 17 Sudeste 0 -- -- 35
2020-09-04 23:00:00 24.4 12 Sudeste 22 Sudeste 0 -- -- 32
2020-09-04 22:00:00 24.8 13 Sudeste 22 Sudeste 0 -- -- 31
2020-09-04 21:00:00 26.4 9 Sudeste 22 Sudeste 0 -- -- 29
2020-09-04 20:00:00 28.9 10 Sudeste 23 Este 0 -- -- 26
2020-09-04 19:00:00 30 12 Este 24 Este 0 -- -- 25
2020-09-04 18:00:00 30.9 6 Sur 26 Sudeste 0 -- -- 25
2020-09-04 17:00:00 31.6 7 Sudeste 27 Sudeste 0 -- -- 24
2020-09-04 16:00:00 31.4 13 Sudeste 27 Sudeste 0 -- -- 22
2020-09-04 15:00:00 31.2 11 Este 35 Sudeste 0 -- -- 24
2020-09-04 14:00:00 30.4 11 Este 25 Este 0 -- -- 24
2020-09-04 13:00:00 30.5 6 Sur 21 Sudeste 0 -- -- 24
2020-09-04 12:00:00 29.3 10 Sur 24 Sudeste 0 -- -- 29
2020-09-04 11:00:00 26.7 14 Sudeste 33 Sudeste 0 -- -- 36
2020-09-04 10:00:00 23.7 21 Sudeste 33 Sudeste 0 -- -- 40
2020-09-04 09:00:00 21.3 15 Sudeste 27 Sudeste 0 -- -- 45
2020-09-04 08:00:00 18.7 17 Sudeste 29 Sudeste 0 -- -- 48
2020-09-04 07:00:00 19.3 17 Sudeste 27 Sudeste 0 -- -- 43
2020-09-04 06:00:00 19.8 15 Sudeste 26 Sudeste 0 -- -- 36
2020-09-04 05:00:00 19.3 14 Sudeste 22 Sudeste 0 -- -- 35
2020-09-04 04:00:00 17.5 12 Sudeste 17 Sudeste 0 -- -- 41
2020-09-04 03:00:00 18.2 11 Sudeste 16 Sudeste 0 -- -- 37
2020-09-04 02:00:00 18.2 5 Sudeste 13 Sudeste 0 -- -- 36
2020-09-04 01:00:00 16.5 7 Sudeste 11 Sudeste 0 -- -- 39
2020-09-04 00:00:00 17.3 3 Sudeste 10 Sur 0 -- -- 38
2020-09-03 23:00:00 18.2 5 Sur 8 Sudeste 0 -- -- 32
2020-09-03 22:00:00 20.1 6 Sudeste 11 Sudeste 0 -- -- 29
2020-09-03 21:00:00 25.1 4 Noroeste 13 Noroeste 0 -- -- 24
2020-09-03 20:00:00 27.6 9 Norte 18 Norte 0 -- -- 20
2020-09-03 19:00:00 28.6 10 Norte 18 Noroeste 0 -- -- 20
2020-09-03 18:00:00 29.4 8 Noroeste 17 Noroeste 0 -- -- 20
2020-09-03 17:00:00 29.9 9 Noroeste 18 Noroeste 0 -- -- 21
2020-09-03 16:00:00 29.6 8 Noroeste 19 Noroeste 0 -- -- 21
2020-09-03 15:00:00 29.3 6 Norte 19 Noroeste 0 -- -- 23
2020-09-03 14:00:00 28.4 9 Noroeste 17 Noroeste 0 -- -- 23
2020-09-03 13:00:00 27.2 8 Noroeste 15 Este 0 -- -- 26
2020-09-03 12:00:00 26.4 4 Sudeste 16 Este 0 -- -- 27
2020-09-03 11:00:00 24 9 Este 15 Este 0 -- -- 30
2020-09-03 10:00:00 21.2 7 Sudeste 13 Sudeste 0 -- -- 36
2020-09-03 09:00:00 15.3 3 Sudeste 10 Este 0 -- -- 49
2020-09-03 08:00:00 9.4 4 Sudeste 7 Sudeste 0 -- -- 62
2020-09-03 07:00:00 9.9 3 Sudeste 5 Sur 0 -- -- 58
2020-09-03 06:00:00 10.5 2 Sur 8 Sur 0 -- -- 57
2020-09-03 05:00:00 10.8 3 Sudeste 6 Sudeste 0 -- -- 54
2020-09-03 04:00:00 11 2 Sur 6 Sur 0 -- -- 53
2020-09-03 03:00:00 12.1 4 Sur 7 Sur 0 -- -- 51
2020-09-03 02:00:00 12.1 2 Sur 7 Sur 0 -- -- 49
2020-09-03 01:00:00 12.5 3 Sudeste 6 Sur 0 -- -- 47
2020-09-03 00:00:00 14 3 Sudeste 5 Sudoeste 0 -- -- 45
2020-09-02 23:00:00 15.6 3 Sur 5 Sur 0 -- -- 42
2020-09-02 22:00:00 19.3 3 Noroeste 6 Noroeste 0 -- -- 36
2020-09-02 21:00:00 22.2 6 Noroeste 19 Noroeste 0 -- -- 30
2020-09-02 20:00:00 24.9 14 Noroeste 21 Noroeste 0 -- -- 27
2020-09-02 19:00:00 25.8 8 Noroeste 21 Noroeste 0 -- -- 25
2020-09-02 18:00:00 26.3 12 Noroeste 24 Noroeste 0 -- -- 23
2020-09-02 17:00:00 26.6 9 Noroeste 24 Noroeste 0 -- -- 23
2020-09-02 16:00:00 26.3 10 Norte 21 Norte 0 -- -- 23
2020-09-02 15:00:00 26 6 Oeste 22 Nordeste 0 -- -- 24
2020-09-02 14:00:00 25.5 7 Norte 21 Norte 0 -- -- 23
2020-09-02 13:00:00 24.6 7 Nordeste 17 Noroeste 0 -- -- 28
2020-09-02 12:00:00 22 8 Noroeste 13 Noroeste 0 -- -- 32
2020-09-02 11:00:00 18.6 5 Noroeste 10 Noroeste 0 -- -- 41
2020-09-02 10:00:00 16.6 2 Norte 8 Noroeste 0 -- -- 45
2020-09-02 09:00:00 10.9 3 Sur 7 Sur 0 -- -- 55
2020-09-02 08:00:00 7.3 4 Sur 8 Sur 0 -- -- 63
2020-09-02 07:00:00 7.4 6 Sur 9 Sudoeste 0 -- -- 61
2020-09-02 06:00:00 7.7 5 Sur 10 Sur 0 -- -- 57
2020-09-02 05:00:00 8.5 6 Sur 9 Sur 0 -- -- 52
2020-09-02 04:00:00 9.1 6 Sur 8 Sur 0 -- -- 51
2020-09-02 03:00:00 10.6 7 Sur 9 Sur 0 -- -- 46
2020-09-02 02:00:00 11.1 6 Sur 9 Sur 0 -- -- 44
2020-09-02 01:00:00 14.2 3 Sudoeste 14 Nordeste 0 -- -- 38
2020-09-02 00:00:00 16.7 13 Nordeste 23 Nordeste 0 -- -- 34
2020-09-01 23:00:00 15.9 6 Sur 8 Sur 0 -- -- 31
2020-09-01 22:00:00 18.9 0 Calma 8 Noroeste 0 -- -- 27
2020-09-01 21:00:00 22.1 5 Noroeste 12 Noroeste 0 -- -- 21
2020-09-01 20:00:00 23.9 8 Noroeste 15 Norte 0 -- -- 19
2020-09-01 19:00:00 24.6 5 Noroeste 19 Noroeste 0 -- -- 18
2020-09-01 18:00:00 25 13 Norte 27 Oeste 0 -- -- 16
2020-09-01 17:00:00 25.6 8 Noroeste 22 Noroeste 0 -- -- 18
2020-09-01 16:00:00 25.3 10 Oeste 22 Noroeste 0 -- -- 18
2020-09-01 15:00:00 25.6 8 Noroeste 25 Oeste 0 -- -- 19
2020-09-01 14:00:00 24.5 11 Noroeste 23 Oeste 0 -- -- 21
2020-09-01 13:00:00 23.8 8 Noroeste 13 Norte 0 -- -- 24
2020-09-01 12:00:00 22 4 Noroeste 12 Oeste 0 -- -- 26
2020-09-01 11:00:00 19.1 4 Oeste 9 Sudoeste 0 -- -- 30
2020-09-01 10:00:00 15.9 2 Sur 8 Sur 0 -- -- 39
2020-09-01 09:00:00 13.5 6 Sur 11 Sudeste 0 -- -- 43
2020-09-01 08:00:00 12.6 4 Sudeste 11 Sudeste 0 -- -- 43
2020-09-01 07:00:00 13.1 9 Este 13 Este 0 -- -- 44
2020-09-01 06:00:00 12.3 0 Calma 5 Sur 0 -- -- 45
2020-09-01 05:00:00 12.5 0 Calma 6 Sudeste 0 -- -- 46
2020-09-01 04:00:00 12.9 0 Calma 10 Sudeste 0 -- -- 41
2020-09-01 03:00:00 12.7 4 Sudeste 9 Sudeste 0 -- -- 40
2020-09-01 02:00:00 12.2 8 Sudeste 10 Sudeste 0 -- -- 41
2020-09-01 01:00:00 12.7 5 Sur 8 Sur 0 -- -- 39
2020-09-01 00:00:00 12.1 6 Sur 9 Sur 0 -- -- 40
2020-08-31 23:00:00 13 5 Sur 8 Sudoeste 0 -- -- 37
2020-08-31 22:00:00 15 0 Calma 5 Sur 0 -- -- 33
2020-08-31 21:00:00 19.4 3 Oeste 14 Oeste 0 -- -- 28
2020-08-31 20:00:00 21.8 11 Oeste 22 Oeste 0 -- -- 25
2020-08-31 19:00:00 23.1 12 Noroeste 24 Oeste 0 -- -- 25
2020-08-31 18:00:00 23.1 13 Oeste 27 Oeste 0 -- -- 23
2020-08-31 17:00:00 24.2 9 Sudoeste 36 Oeste 0 -- -- 23
2020-08-31 16:00:00 22.9 9 Oeste 25 Oeste 0 -- -- 23
2020-08-31 15:00:00 22.3 9 Oeste 24 Oeste 0 -- -- 24
2020-08-31 14:00:00 22.3 5 Norte 24 Sudoeste 0 -- -- 24
2020-08-31 13:00:00 21.8 6 Este 18 Sudeste 0 -- -- 26
2020-08-31 12:00:00 20.5 4 Nordeste 20 Sudeste 0 -- -- 28
2020-08-31 11:00:00 18.1 15 Este 25 Sudeste 0 -- -- 34
2020-08-31 10:00:00 15.3 12 Sudeste 18 Sudeste 0 -- -- 41
2020-08-31 09:00:00 10.5 5 Sudeste 12 Sudeste 0 -- -- 55
2020-08-31 08:00:00 6.6 9 Sudeste 13 Sudeste 0 -- -- 67
2020-08-31 07:00:00 4.1 0 Calma 8 Sudeste 0 -- -- 68
2020-08-31 06:00:00 4.5 2 Sudeste 8 Sudeste 0 -- -- 73
2020-08-31 05:00:00 5.8 3 Sudeste 7 Sur 0 -- -- 66
2020-08-31 04:00:00 5.6 0 Calma 6 Sur 0 -- -- 67
2020-08-31 03:00:00 6.9 3 Sur 5 Sur 0 -- -- 61
2020-08-31 02:00:00 8.4 3 Sudeste 11 Sudeste 0 -- -- 58
2020-08-31 01:00:00 10.4 8 Este 17 Este 0 -- -- 55
2020-08-31 00:00:00 10.6 11 Este 17 Este 0 -- -- 53
2020-08-30 23:00:00 11.5 8 Este 12 Nordeste 0 -- -- 47
2020-08-30 22:00:00 12.5 5 Nordeste 9 Norte 0 -- -- 43
2020-08-30 21:00:00 14.7 9 Norte 21 Norte 0 -- -- 39
2020-08-30 20:00:00 17.1 12 Norte 27 Norte 0 -- -- 35
2020-08-30 19:00:00 18 10 Norte 24 Norte 0 -- -- 35
2020-08-30 18:00:00 18.1 13 Nordeste 30 Nordeste 0 -- -- 36
2020-08-30 17:00:00 18 12 Norte 26 Norte 0 -- -- 36
2020-08-30 16:00:00 18.4 9 Norte 26 Nordeste 0 -- -- 37
2020-08-30 15:00:00 18.2 9 Nordeste 35 Nordeste 0 -- -- 38
2020-08-30 14:00:00 17 14 Norte 25 Noroeste 0 -- -- 43
2020-08-30 13:00:00 14.9 12 Nordeste 23 Nordeste 0 -- -- 50
2020-08-30 12:00:00 13.5 14 Norte 23 Nordeste 0 -- -- 55
2020-08-30 11:00:00 13.5 16 Nordeste 23 Nordeste 0 -- -- 57
2020-08-30 10:00:00 11.4 6 Nordeste 10 Nordeste 0 -- -- 66
2020-08-30 09:00:00 8.3 0 Calma 5 Sur 0 -- -- 76
2020-08-30 08:00:00 4.1 5 Sur 8 Sur 0 -- -- 87
2020-08-30 07:00:00 4.4 5 Sur 8 Sur 0 -- -- 84
2020-08-30 06:00:00 5 5 Sur 7 Sur 0 -- -- 83
2020-08-30 05:00:00 -- -- -- -- -- -- -- -- --
2020-08-30 04:00:00 6.4 3 Sudoeste 4 Sudoeste 0 -- -- 79
2020-08-30 03:00:00 7.4 0 Calma 10 Nordeste 0 -- -- 79
2020-08-30 02:00:00 8.8 7 Nordeste 16 Norte 0 -- -- 77
2020-08-30 01:00:00 9.9 12 Norte 22 Nordeste 0 -- -- 75
2020-08-30 00:00:00 11.7 12 Nordeste 23 Norte 0 -- -- 67
2020-08-29 23:00:00 13.4 17 Norte 29 Norte 0 -- -- 61
2020-08-29 22:00:00 15.1 17 Norte 27 Noroeste 0 -- -- 50
2020-08-29 21:00:00 16 21 Noroeste 36 Noroeste 0 -- -- 47
2020-08-29 20:00:00 18.1 23 Noroeste 42 Norte 0 -- -- 38
2020-08-29 19:00:00 19.3 22 Noroeste 40 Noroeste 0 -- -- 37
2020-08-29 18:00:00 18.6 12 Noroeste 38 Noroeste 0 -- -- 40
2020-08-29 17:00:00 18.6 14 Norte 36 Noroeste 0 -- -- 41
2020-08-29 16:00:00 19.9 21 Noroeste 39 Oeste 0 -- -- 35
2020-08-29 15:00:00 18.6 16 Noroeste 35 Noroeste 0 -- -- 40
2020-08-29 14:00:00 17.7 19 Noroeste 33 Noroeste 0 -- -- 43
2020-08-29 13:00:00 16.8 13 Noroeste 27 Noroeste -- -- -- 47
2020-08-29 12:00:00 15.7 12 Noroeste 29 Noroeste 0 -- -- 52
2020-08-29 11:00:00 14.7 9 Noroeste 17 Norte 0 -- -- 53
2020-08-29 10:00:00 12.5 8 Noroeste 12 Noroeste 0 -- -- 63
2020-08-29 09:00:00 8.7 6 Oeste 9 Oeste 0 -- -- 79
2020-08-29 08:00:00 8.1 6 Oeste 10 Oeste 0 -- -- 82
2020-08-29 07:00:00 8.9 5 Oeste 9 Oeste 0 -- -- 81
2020-08-29 06:00:00 10.4 4 Noroeste 8 Noroeste 0 -- -- 77
2020-08-29 05:00:00 11.4 6 Norte 17 Norte 0 -- -- 73
2020-08-29 04:00:00 12.1 7 Noroeste 15 Noroeste 0 -- -- 71
2020-08-29 03:00:00 12.6 14 Noroeste 25 Noroeste 0 -- -- 68
2020-08-29 02:00:00 13.5 13 Noroeste 22 Noroeste 0 -- -- 68
2020-08-29 01:00:00 13.9 11 Oeste 28 Oeste 0 -- -- 50
2020-08-29 00:00:00 15.6 12 Oeste 25 Oeste 0 -- -- 45
2020-08-28 23:00:00 17.2 13 Oeste 33 Oeste 0 -- -- 42
2020-08-28 22:00:00 18.8 25 Oeste 38 Oeste 0 -- -- 41
2020-08-28 21:00:00 20.4 28 Oeste 43 Oeste 0 -- -- 30
2020-08-28 20:00:00 23.1 27 Oeste 41 Sudoeste 0 -- -- 23
2020-08-28 19:00:00 24.6 28 Oeste 45 Sudoeste 0 -- -- 20
2020-08-28 18:00:00 25.8 25 Oeste 43 Oeste 0 -- -- 21
2020-08-28 17:00:00 26.3 27 Oeste 49 Oeste 0 -- -- 20
2020-08-28 16:00:00 25.9 25 Oeste 39 Oeste 0 -- -- 23
2020-08-28 15:00:00 25.1 18 Oeste 39 Oeste 0 -- -- 26
2020-08-28 14:00:00 24.1 18 Oeste 36 Oeste 0 -- -- 32
2020-08-28 13:00:00 22.8 19 Oeste 35 Oeste -- -- -- 40
2020-08-28 12:00:00 20.7 19 Sudoeste 32 Sudoeste 0 -- -- 61
2020-08-28 11:00:00 19 21 Oeste 33 Sudoeste 0 -- -- 68
2020-08-28 10:00:00 18.1 21 Sudoeste 33 Oeste 0 -- -- 74
2020-08-28 09:00:00 17.7 13 Sudoeste 27 Sudoeste 0 -- -- 74
2020-08-28 08:00:00 15.8 5 Sudoeste 16 Sudoeste 0 -- -- 80
2020-08-28 07:00:00 16.5 10 Sudoeste 18 Sudoeste 0 -- -- 77
2020-08-28 06:00:00 17.3 14 Sudoeste 23 Sudoeste 0 -- -- 70
2020-08-28 05:00:00 18.3 15 Sudoeste 21 Sudoeste 0 -- -- 61
2020-08-28 04:00:00 19 12 Sudoeste 16 Sudoeste 0 -- -- 60
2020-08-28 03:00:00 19.5 8 Sur 11 Sur 0 -- -- 58
2020-08-28 02:00:00 20.7 6 Sur 18 Sudoeste 0 -- -- 53
2020-08-28 01:00:00 22 15 Sudoeste 22 Sudoeste 0 -- -- 46
2020-08-28 00:00:00 24.1 17 Sudoeste 32 Sudoeste 0 -- -- 37